Time;durP1;ratioP1;P1;durP2;ratioP2;P2;SDS_P1;SDS_P2;PMS_P1;PMS_P2;Temp;Humidity;BMP_temperature;BMP_pressure;BME280_temperature;BME280_humidity;BME280_pressure;Samples;Min_cycle;Max_cycle;Signal;HPM_P1;HPM_P2
2022/11/16 00:03:52;;;;;;;67.12;25.45;;;;;;;5.86;100.00;99999.49;3438800;83;99052;-86
2022/11/16 00:14:20;;;;;;;73.70;28.47;;;;;;;5.86;100.00;100003.59;3419131;82;98882;-84
2022/11/16 00:19:22;;;;;;;64.67;24.10;;;;;;;5.84;100.00;100007.83;3446024;82;30543;-85
2022/11/16 00:24:23;;;;;;;63.92;26.35;;;;;;;5.83;100.00;100002.92;3441592;84;99147;-87
2022/11/16 00:29:26;;;;;;;73.83;28.65;;;;;;;5.84;100.00;100002.36;3425112;84;34056;-86
2022/11/16 00:34:27;;;;;;;71.97;27.35;;;;;;;5.82;100.00;100008.73;3433386;83;98953;-86
2022/11/16 00:39:28;;;;;;;74.33;28.00;;;;;;;5.87;100.00;100004.36;3466470;83;31848;-86
2022/11/16 00:44:29;;;;;;;68.97;25.93;;;;;;;5.92;100.00;100000.00;3442293;83;99007;-84
2022/11/16 00:49:30;;;;;;;75.50;27.20;;;;;;;5.93;100.00;100001.58;3392769;85;31700;-86
2022/11/16 00:54:31;;;;;;;71.67;27.63;;;;;;;5.94;100.00;100004.55;3394785;82;99005;-86
2022/11/16 00:59:32;;;;;;;78.17;25.83;;;;;;;5.96;100.00;100004.97;3470597;83;31638;-87
2022/11/16 01:04:33;;;;;;;79.37;27.27;;;;;;;5.97;100.00;100003.25;3439742;83;99202;-87
2022/11/16 01:09:34;;;;;;;69.93;26.33;;;;;;;5.99;100.00;99999.58;3411207;85;31591;-86
2022/11/16 01:14:37;;;;;;;72.00;26.00;;;;;;;5.98;100.00;99995.28;3394721;85;98837;-87
2022/11/16 01:19:38;;;;;;;75.67;25.47;;;;;;;5.97;100.00;99999.16;3389752;85;31633;-84
2022/11/16 01:24:39;;;;;;;72.60;26.60;;;;;;;6.00;100.00;99992.97;3438880;81;98832;-86
2022/11/16 01:29:40;;;;;;;88.03;29.30;;;;;;;6.01;100.00;99993.77;3562601;81;31655;-85
2022/11/16 01:34:42;;;;;;;77.20;28.10;;;;;;;5.99;100.00;99990.02;3534004;80;99357;-85
2022/11/16 01:39:43;;;;;;;79.50;28.23;;;;;;;6.00;100.00;99982.63;3462566;83;31611;-86
2022/11/16 01:44:49;;;;;;;72.63;26.67;;;;;;;6.01;100.00;99990.45;3451155;83;98879;-86
2022/11/16 01:49:59;;;;;;;;;;;;;;;6.00;100.00;99980.67;3458970;83;25939;-87
2022/11/16 01:55:01;;;;;;;63.73;22.55;;;;;;;6.05;100.00;99985.09;3431889;83;85027;-86
2022/11/16 02:00:06;;;;;;;57.70;22.32;;;;;;;6.07;100.00;99978.69;3464208;84;31435;-87
2022/11/16 02:05:10;;;;;;;66.47;24.00;;;;;;;6.05;100.00;99970.06;3412347;84;98832;-87
2022/11/16 02:10:17;;;;;;;60.50;23.38;;;;;;;6.01;100.00;99967.23;3336262;86;32385;-85
2022/11/16 02:15:33;;;;;;;;;;;;;;;5.99;100.00;99973.64;3397004;83;98707;-85
2022/11/16 02:20:54;;;;;;;50.73;19.93;;;;;;;5.98;100.00;99969.89;3454059;83;26488;-87
2022/11/16 02:26:33;;;;;;;49.08;19.50;;;;;;;5.97;100.00;99967.75;3472303;83;98782;-86
2022/11/16 02:31:41;;;;;;;53.70;21.17;;;;;;;5.97;100.00;99966.95;3468571;83;33111;-85
2022/11/16 02:36:46;;;;;;;56.58;22.60;;;;;;;5.89;100.00;99964.63;3457932;83;98664;-85
2022/11/16 02:41:49;;;;;;;43.27;19.27;;;;;;;5.87;100.00;99958.75;3452409;83;28518;-87
2022/11/16 02:46:55;;;;;;;55.07;22.67;;;;;;;5.90;100.00;99959.97;3482589;83;98691;-86
2022/11/16 02:51:58;;;;;;;47.60;21.85;;;;;;;5.91;100.00;99962.36;3480042;83;26562;-86
2022/11/16 02:57:07;;;;;;;51.00;21.73;;;;;;;5.86;100.00;99958.53;3464383;83;98731;-87
2022/11/16 03:02:40;;;;;;;58.33;24.30;;;;;;;5.83;100.00;99957.09;3469120;83;29143;-83
2022/11/16 03:07:55;;;;;;;53.10;24.27;;;;;;;5.79;100.00;99956.19;3479912;83;98657;-87
2022/11/16 03:12:58;;;;;;;56.02;24.37;;;;;;;5.76;100.00;99953.59;3532165;82;32354;-87
2022/11/16 03:17:59;;;;;;;60.23;24.77;;;;;;;5.73;100.00;99954.88;3449968;82;98579;-87
2022/11/16 03:23:10;;;;;;;55.33;24.67;;;;;;;5.72;100.00;99951.94;3444353;84;31706;-87
2022/11/16 03:28:49;;;;;;;56.63;24.52;;;;;;;5.72;100.00;99947.25;3421663;84;32942;-85
2022/11/16 03:33:55;;;;;;;52.67;24.30;;;;;;;5.74;100.00;99942.81;3436748;82;98836;-85
2022/11/16 03:39:04;;;;;;;52.67;24.40;;;;;;;5.69;100.00;99941.16;3446614;84;26470;-86
2022/11/16 03:44:07;;;;;;;45.75;21.57;;;;;;;5.66;100.00;99936.95;3451242;83;98775;-86
2022/11/16 03:49:08;;;;;;;49.18;21.87;;;;;;;5.65;100.00;99924.46;3490086;83;31450;-86
2022/11/16 03:54:09;;;;;;;42.00;20.43;;;;;;;5.64;100.00;99928.34;3475541;83;99056;-86
2022/11/16 03:59:10;;;;;;;43.27;21.93;;;;;;;5.61;100.00;99916.76;3472863;82;31669;-87
2022/11/16 04:24:10;;;;;;;39.67;19.02;;;;;;;5.61;100.00;99914.83;3479917;83;98865;-87
2022/11/16 04:25:20;;;;;;;52.17;22.63;;;;;;;5.67;100.00;99901.71;3470177;83;98690;-86
2022/11/16 04:30:21;;;;;;;47.60;21.73;;;;;;;5.66;100.00;99896.81;3484381;83;33840;-87
2022/11/16 04:40:41;;;;;;;52.05;23.40;;;;;;;5.67;100.00;99887.47;3487580;83;32567;-86
2022/11/16 04:51:01;;;;;;;52.20;21.68;;;;;;;5.71;100.00;99885.61;3493967;83;32910;-85
2022/11/16 04:56:02;;;;;;;50.47;22.47;;;;;;;5.73;100.00;99875.70;3508528;82;98830;-87
2022/11/16 05:01:03;;;;;;;53.03;23.67;;;;;;;5.69;100.00;99877.00;3524407;82;31702;-87
2022/11/16 05:06:04;;;;;;;51.80;23.27;;;;;;;5.68;100.00;99867.20;3498849;82;98868;-86
2022/11/16 05:11:05;;;;;;;49.93;22.80;;;;;;;5.70;100.00;99865.49;3500740;82;32840;-86
2022/11/16 05:16:06;;;;;;;50.67;23.37;;;;;;;5.69;100.00;99869.38;3475684;82;98686;-87
2022/11/16 05:21:07;;;;;;;46.70;22.17;;;;;;;5.67;100.00;99841.66;3451878;84;32247;-87
2022/11/16 05:26:08;;;;;;;48.73;20.67;;;;;;;5.68;100.00;99836.41;3469639;83;98879;-84
2022/11/16 05:31:09;;;;;;;49.57;23.27;;;;;;;5.67;100.00;99838.33;3485330;83;31714;-86
2022/11/16 05:36:10;;;;;;;45.33;18.73;;;;;;;5.66;100.00;99845.51;3522973;82;98740;-87
2022/11/16 05:41:10;;;;;;;48.45;21.45;;;;;;;5.62;100.00;99834.52;3542403;81;30286;-87
2022/11/16 05:46:11;;;;;;;38.23;18.97;;;;;;;5.66;100.00;99846.31;3530537;81;98752;-86
2022/11/16 05:51:12;;;;;;;43.30;20.43;;;;;;;5.66;100.00;99845.51;3547594;82;34894;-85
2022/11/16 05:56:13;;;;;;;45.13;20.03;;;;;;;5.68;100.00;99841.86;3507635;81;98892;-86
2022/11/16 06:01:14;;;;;;;40.00;17.77;;;;;;;5.70;100.00;99847.75;3459010;83;34836;-86
2022/11/16 06:06:16;;;;;;;39.10;18.57;;;;;;;5.70;100.00;99846.38;3463697;83;98837;-86
2022/11/16 06:11:16;;;;;;;33.77;16.23;;;;;;;5.71;100.00;99850.13;3485250;83;35145;-87
2022/11/16 06:16:18;;;;;;;37.50;17.97;;;;;;;5.72;100.00;99852.30;3454209;83;99368;-87
2022/11/16 06:21:19;;;;;;;34.60;16.30;;;;;;;5.74;100.00;99855.45;3452681;84;35844;-87
2022/11/16 06:26:20;;;;;;;36.33;18.83;;;;;;;5.73;100.00;99847.05;3448450;82;98829;-86
2022/11/16 06:31:21;;;;;;;32.23;17.10;;;;;;;5.73;100.00;99851.14;3454501;84;36338;-84
2022/11/16 06:36:22;;;;;;;34.13;16.23;;;;;;;5.75;100.00;99846.91;3497386;82;98928;-86
2022/11/16 06:41:23;;;;;;;33.18;16.17;;;;;;;5.76;100.00;99850.41;3535277;82;35383;-88
2022/11/16 06:46:24;;;;;;;39.25;17.37;;;;;;;5.77;100.00;99854.15;3519317;82;98962;-86
2022/11/16 06:51:25;;;;;;;34.77;16.93;;;;;;;5.79;100.00;99853.80;3516248;82;26247;-86
2022/11/16 06:56:25;;;;;;;37.90;18.33;;;;;;;5.80;100.00;99851.31;3513664;81;98883;-85
2022/11/16 07:01:26;;;;;;;35.70;15.53;;;;;;;5.75;100.00;99838.71;3530113;82;33837;-84
2022/11/16 07:06:28;;;;;;;36.03;17.10;;;;;;;5.81;100.00;99846.86;3536172;82;98781;-85
2022/11/16 07:11:29;;;;;;;35.13;16.47;;;;;;;5.84;100.00;99854.91;3528451;82;33154;-85
2022/11/16 07:16:30;;;;;;;37.67;18.27;;;;;;;5.85;100.00;99848.30;3557274;80;98693;-84
2022/11/16 07:21:31;;;;;;;33.87;16.77;;;;;;;5.88;100.00;99846.19;3584309;81;32545;-84
2022/11/16 07:26:33;;;;;;;36.58;16.97;;;;;;;5.91;100.00;99850.95;3542487;81;98632;-85
2022/11/16 07:31:34;;;;;;;34.03;15.37;;;;;;;5.92;100.00;99857.42;3521191;82;32485;-86
2022/11/16 07:36:35;;;;;;;36.50;16.70;;;;;;;5.93;100.00;99854.09;3525195;81;98727;-85
2022/11/16 07:41:41;;;;;;;40.90;18.40;;;;;;;5.96;100.00;99859.66;3535363;82;32569;-85
2022/11/16 07:46:39;;;;;;;38.13;16.30;;;;;;;5.99;100.00;99865.75;3527277;82;98604;-84
2022/11/16 07:51:40;;;;;;;34.70;15.87;;;;;;;6.01;100.00;99863.44;3520386;82;32463;-84
2022/11/16 07:56:41;;;;;;;34.67;16.23;;;;;;;6.04;100.00;99865.47;3492750;82;98902;-84
2022/11/16 08:01:42;;;;;;;34.40;15.50;;;;;;;6.10;100.00;99869.48;3475066;83;33079;-84
2022/11/16 08:06:43;;;;;;;30.60;14.33;;;;;;;6.14;100.00;99870.91;3476167;83;98600;-84
2022/11/16 08:11:45;;;;;;;32.40;14.13;;;;;;;6.18;100.00;99865.75;3508168;83;33067;-83
2022/11/16 08:16:46;;;;;;;30.57;13.40;;;;;;;6.25;100.00;99870.55;3513423;81;98685;-84
2022/11/16 08:21:47;;;;;;;31.20;14.07;;;;;;;6.25;100.00;99870.55;3532086;82;32532;-83
2022/11/16 08:26:49;;;;;;;31.67;13.33;;;;;;;6.26;100.00;99878.95;3510673;82;98783;-84
2022/11/16 08:31:50;;;;;;;31.47;13.80;;;;;;;6.24;100.00;99873.88;3515338;82;32518;-86
2022/11/16 08:36:51;;;;;;;29.10;12.53;;;;;;;6.22;100.00;99871.28;3519372;82;98908;-84
2022/11/16 08:41:52;;;;;;;24.17;10.47;;;;;;;6.20;100.00;99870.27;3536009;81;32543;-83
2022/11/16 08:46:53;;;;;;;19.80;8.90;;;;;;;6.15;100.00;99858.27;3528989;81;98711;-84
2022/11/16 08:51:54;;;;;;;17.77;8.05;;;;;;;6.08;100.00;99850.51;3535565;82;32621;-83
2022/11/16 08:56:55;;;;;;;19.75;7.50;;;;;;;6.08;100.00;99866.33;3492928;82;98369;-86
2022/11/16 09:01:56;;;;;;;14.43;7.10;;;;;;;6.08;100.00;99861.44;3475442;83;26297;-85
2022/11/16 09:06:56;;;;;;;14.73;6.23;;;;;;;6.11;100.00;99872.42;3469563;83;98367;-86
2022/11/16 09:11:57;;;;;;;14.03;6.20;;;;;;;6.15;100.00;99874.66;3459704;83;26144;-84
2022/11/16 09:16:58;;;;;;;16.07;7.90;;;;;;;6.19;100.00;99865.97;3468501;83;98661;-87
2022/11/16 09:21:59;;;;;;;18.03;7.40;;;;;;;6.19;100.00;99880.98;3473855;83;26407;-84
2022/11/16 09:27:05;;;;;;;21.63;8.43;;;;;;;6.20;100.00;99888.03;3476296;83;98246;-85
2022/11/16 09:32:03;;;;;;;19.60;9.03;;;;;;;6.19;100.00;99874.16;3487489;82;26285;-84
2022/11/16 09:37:04;;;;;;;21.10;9.00;;;;;;;6.23;100.00;99879.69;3551047;81;98680;-85
2022/11/16 09:42:33;;;;;;;16.83;8.90;;;;;;;6.21;100.00;99875.17;3560106;81;26391;-85
2022/11/16 09:47:51;;;;;;;20.95;9.30;;;;;;;6.24;100.00;99868.97;3490971;82;98615;-86
2022/11/16 09:52:55;;;;;;;21.70;10.85;;;;;;;6.25;100.00;99867.81;3479317;83;32446;-84
2022/11/16 09:58:00;;;;;;;20.27;10.43;;;;;;;6.25;100.00;99863.72;3416805;84;98761;-86
2022/11/16 10:03:05;;;;;;;21.10;10.10;;;;;;;6.27;100.00;99860.84;3412721;85;28087;-86
2022/11/16 10:08:23;;;;;;;25.75;11.63;;;;;;;6.31;100.00;99858.97;3485544;82;98193;-86
2022/11/16 10:13:49;;;;;;;25.15;10.95;;;;;;;6.32;100.00;99866.01;3496153;83;98713;-85
2022/11/16 10:19:04;;;;;;;24.57;11.80;;;;;;;6.34;100.00;99854.13;3482127;83;28381;-86
2022/11/16 10:24:27;;;;;;;23.25;10.63;;;;;;;6.35;100.00;99849.46;3491842;83;98866;-84
2022/11/16 10:29:39;;;;;;;22.62;11.12;;;;;;;6.36;100.00;99849.67;3485834;83;33670;-85
2022/11/16 10:35:11;;;;;;;23.67;10.27;;;;;;;6.38;100.00;99844.06;3488938;83;98777;-85
2022/11/16 10:40:20;;;;;;;21.17;10.95;;;;;;;6.40;100.00;99847.23;3489356;83;32578;-83
2022/11/16 10:45:29;;;;;;;18.60;9.80;;;;;;;6.37;100.00;99841.69;3480900;83;98866;-86
2022/11/16 10:50:35;;;;;;;22.57;10.13;;;;;;;6.39;100.00;99842.90;3485266;83;27615;-85
2022/11/16 10:55:36;;;;;;;24.27;10.43;;;;;;;6.42;100.00;99838.66;3495633;82;98765;-87
2022/11/16 11:00:45;;;;;;;22.13;10.57;;;;;;;6.42;100.00;99832.63;3503109;83;26564;-85
2022/11/16 11:05:52;;;;;;;19.52;9.15;;;;;;;6.47;100.00;99837.80;3493139;83;98937;-85
2022/11/16 11:11:00;;;;;;;19.37;9.53;;;;;;;6.49;100.00;99834.11;3508703;83;29331;-86
2022/11/16 11:16:16;;;;;;;18.60;8.90;;;;;;;6.52;100.00;99828.48;3540160;80;99488;-85
2022/11/16 11:21:21;;;;;;;18.15;9.63;;;;;;;6.54;100.00;99827.56;3570818;81;27462;-85
2022/11/16 11:26:34;;;;;;;18.48;9.48;;;;;;;6.56;100.00;99831.52;3511113;81;98411;-86
2022/11/16 11:31:42;;;;;;;19.70;8.93;;;;;;;6.58;100.00;99835.23;3501439;81;33297;-84
2022/11/16 11:36:48;;;;;;;17.37;8.68;;;;;;;6.58;100.00;99835.23;3499146;82;98538;-83
2022/11/16 11:42:18;;;;;;;16.12;7.90;;;;;;;6.53;100.00;99833.59;3514065;82;27611;-85
2022/11/16 11:47:57;;;;;;;15.23;7.33;;;;;;;6.50;100.00;99832.17;3516677;82;98485;-86
2022/11/16 11:53:23;;;;;;;14.35;6.67;;;;;;;6.44;100.00;99821.33;3552541;82;33798;-84
2022/11/16 11:58:29;;;;;;;14.53;6.67;;;;;;;6.44;100.00;99829.53;3514976;82;28238;-85
2022/11/16 12:03:48;;;;;;;14.23;6.67;;;;;;;6.42;100.00;99833.19;3527151;82;98750;-85
2022/11/16 12:09:14;;;;;;;11.12;5.85;;;;;;;6.39;100.00;99824.36;3533187;82;32248;-83
2022/11/16 12:14:24;;;;;;;12.98;5.97;;;;;;;6.39;100.00;99821.03;3532078;82;98854;-84
2022/11/16 12:19:42;;;;;;;14.73;6.00;;;;;;;6.40;100.00;99815.81;3531240;82;29662;-84
2022/11/16 12:25:03;;;;;;;10.23;4.50;;;;;;;6.39;100.00;99805.23;3541694;82;98630;-85
2022/11/16 12:30:11;;;;;;;9.57;4.30;;;;;;;6.37;100.00;99800.69;3537483;82;27555;-85
2022/11/16 12:35:35;;;;;;;9.35;4.33;;;;;;;6.37;100.00;99797.39;3543059;80;98501;-85
2022/11/16 12:40:54;;;;;;;10.87;5.27;;;;;;;6.40;100.00;99787.67;3527759;82;29045;-85
2022/11/16 12:46:32;;;;;;;11.40;5.53;;;;;;;6.48;100.00;99794.83;3528638;80;98567;-85
2022/11/16 12:51:55;;;;;;;11.68;5.58;;;;;;;6.48;100.00;99798.36;3537258;82;30631;-84
2022/11/16 12:57:04;;;;;;;12.03;5.55;;;;;;;6.50;100.00;99789.80;3526948;80;98544;-86
2022/11/16 13:02:32;;;;;;;13.70;6.27;;;;;;;6.49;100.00;99800.53;3545723;82;28652;-83
2022/11/16 13:07:43;;;;;;;11.50;5.65;;;;;;;6.46;100.00;99785.65;3510759;82;98380;-85
2022/11/16 13:12:49;;;;;;;12.43;6.03;;;;;;;6.46;100.00;99782.92;3507718;82;32658;-83
2022/11/16 13:17:54;;;;;;;13.05;6.40;;;;;;;6.48;100.00;99779.23;3504346;82;98486;-86
2022/11/16 13:23:39;;;;;;;18.25;6.90;;;;;;;6.52;99.76;99783.39;3510885;82;28805;-86
2022/11/16 13:28:58;;;;;;;12.63;6.10;;;;;;;6.43;100.00;99782.27;3509627;81;31219;-83
2022/11/16 13:34:04;;;;;;;10.75;5.78;;;;;;;6.42;100.00;99768.95;3503795;83;98587;-85
2022/11/16 13:39:06;;;;;;;;;;;;;;;6.37;100.00;99772.80;3501599;81;27492;-85
2022/11/16 13:49:29;;;;;;;11.00;6.10;;;;;;;6.40;100.00;99772.08;3865765;75;35234;-84
2022/11/16 13:54:36;;;;;;;10.78;5.58;;;;;;;6.33;100.00;99768.44;3780816;77;98662;-85
2022/11/16 13:59:36;;;;;;;;;;;;;;;6.25;100.00;99768.88;3725853;77;25808;-83
2022/11/16 14:04:58;;;;;;;11.13;6.37;;;;;;;6.18;100.00;99776.97;3691983;77;84627;-84
2022/11/16 14:10:00;;;;;;;12.88;6.62;;;;;;;6.11;100.00;99776.81;3610681;80;32902;-84
2022/11/16 14:18:30;;;;;;;15.93;7.50;;;;;;;6.12;100.00;99776.25;3737280;77;25687;-87
2022/11/16 14:23:57;;;;;;;19.10;8.38;;;;;;;6.09;100.00;99777.77;3684741;78;98561;-85
2022/11/16 14:29:35;;;;;;;13.70;7.17;;;;;;;6.08;100.00;99778.92;3680514;78;25991;-85
2022/11/16 14:34:43;;;;;;;14.07;7.20;;;;;;;6.02;100.00;99776.84;3685179;78;98682;-84
2022/11/16 14:39:44;;;;;;;18.55;7.53;;;;;;;5.96;100.00;99785.12;3687306;78;31629;-85
2022/11/16 14:44:46;;;;;;;14.33;6.70;;;;;;;5.86;100.00;99770.68;3683730;78;98762;-86
2022/11/16 14:49:48;;;;;;;29.70;11.95;;;;;;;5.92;100.00;99786.42;3689765;78;31706;-84
2022/11/16 14:54:58;;;;;;;12.43;6.45;;;;;;;5.91;100.00;99778.02;3658248;78;98656;-87
2022/11/16 15:00:29;;;;;;;13.55;6.25;;;;;;;5.88;100.00;99787.48;3599581;80;31704;-86
2022/11/16 15:05:35;;;;;;;14.78;7.25;;;;;;;5.83;100.00;99779.02;3598760;80;98525;-87
2022/11/16 15:10:36;;;;;;;23.40;10.00;;;;;;;5.79;100.00;99781.45;3611342;80;31628;-84
2022/11/16 15:15:36;;;;;;;20.97;10.53;;;;;;;5.76;100.00;99776.69;3583278;79;98891;-86
2022/11/16 15:20:49;;;;;;;16.63;9.70;;;;;;;5.72;100.00;99772.53;3607818;79;34894;-85
2022/11/16 15:25:55;;;;;;;13.48;8.43;;;;;;;5.69;100.00;99780.66;3618291;79;98724;-85
2022/11/16 15:31:00;;;;;;;15.10;8.85;;;;;;;5.64;100.00;99776.84;3618314;79;31658;-85
2022/11/16 15:36:20;;;;;;;22.52;10.08;;;;;;;5.57;100.00;99777.48;3609027;79;98740;-84
2022/11/16 15:41:24;;;;;;;17.98;10.25;;;;;;;5.51;100.00;99768.01;3615073;79;32335;-85
2022/11/16 15:46:28;;;;;;;18.70;9.53;;;;;;;5.48;100.00;99768.74;3630766;79;98911;-86
2022/11/16 15:51:30;;;;;;;28.23;13.00;;;;;;;5.43;100.00;99773.68;3665478;78;31662;-84
2022/11/16 15:56:32;;;;;;;34.18;14.60;;;;;;;5.39;100.00;99775.53;3641601;79;98842;-84
2022/11/16 16:01:40;;;;;;;13.43;6.35;;;;;;;5.35;100.00;99780.92;3662025;79;31687;-85
2022/11/16 16:06:57;;;;;;;12.63;6.42;;;;;;;5.27;100.00;99781.94;3655075;78;98377;-86
2022/11/16 16:12:19;;;;;;;11.15;6.47;;;;;;;5.25;100.00;99777.39;3662462;79;25906;-83
2022/11/16 16:17:25;;;;;;;13.00;7.30;;;;;;;5.22;100.00;99774.59;3646575;78;98346;-85
2022/11/16 16:22:36;;;;;;;17.45;7.30;;;;;;;5.15;100.00;99775.24;3650942;79;26239;-86
2022/11/16 16:27:40;;;;;;;12.53;6.28;;;;;;;5.12;100.00;99778.67;3650666;79;98732;-85
2022/11/16 16:32:41;;;;;;;14.33;6.65;;;;;;;5.06;100.00;99768.39;3661344;78;32231;-85
2022/11/16 16:37:41;;;;;;;17.00;8.13;;;;;;;5.02;100.00;99770.27;3654114;79;98657;-85
2022/11/16 16:42:43;;;;;;;24.93;11.80;;;;;;;4.98;100.00;99764.73;3657566;79;34854;-85
2022/11/16 16:47:44;;;;;;;38.20;20.10;;;;;;;4.97;100.00;99776.77;3660653;78;98655;-84
2022/11/16 16:52:45;;;;;;;21.43;10.43;;;;;;;4.96;100.00;99782.00;3661778;79;34797;-87
2022/11/16 16:57:46;;;;;;;26.97;11.73;;;;;;;4.91;100.00;99786.37;3657929;79;98628;-84
2022/11/16 17:02:48;;;;;;;20.57;12.00;;;;;;;4.83;100.00;99786.00;3659858;78;34839;-85
2022/11/16 17:07:48;;;;;;;18.27;9.77;;;;;;;4.82;100.00;99783.62;3651781;79;98696;-84
2022/11/16 17:12:55;;;;;;;15.33;8.80;;;;;;;4.78;100.00;99786.83;3658625;79;34919;-86
2022/11/16 17:17:57;;;;;;;15.03;8.73;;;;;;;4.72;100.00;99794.50;3636784;78;98609;-84
2022/11/16 17:22:58;;;;;;;14.18;7.47;;;;;;;4.68;100.00;99794.98;3624444;79;31673;-85
2022/11/16 17:27:59;;;;;;;14.50;8.67;;;;;;;4.63;100.00;99803.41;3624369;79;98571;-84
2022/11/16 17:33:00;;;;;;;14.77;8.20;;;;;;;4.61;100.00;99793.45;3626872;79;34792;-84
2022/11/16 17:38:01;;;;;;;16.33;8.13;;;;;;;4.54;100.00;99800.07;3610465;79;98424;-85
2022/11/16 17:43:02;;;;;;;20.33;10.03;;;;;;;4.53;100.00;99809.39;3621508;79;35712;-84
2022/11/16 17:48:04;;;;;;;14.10;8.00;;;;;;;4.48;100.00;99808.29;3620580;79;98572;-86
2022/11/16 17:53:05;;;;;;;15.27;7.93;;;;;;;4.51;100.00;99813.61;3633266;79;34878;-86
2022/11/16 17:58:05;;;;;;;25.90;9.77;;;;;;;4.43;100.00;99811.27;3618253;79;98395;-87
2022/11/16 18:03:07;;;;;;;13.60;7.90;;;;;;;4.37;100.00;99814.05;3636623;79;34872;-85
2022/11/16 18:08:07;;;;;;;13.87;8.13;;;;;;;4.33;100.00;99813.18;3623981;79;98157;-85
2022/11/16 18:13:08;;;;;;;13.62;7.70;;;;;;;4.33;100.00;99806.93;3626211;79;34965;-85
2022/11/16 18:18:09;;;;;;;15.30;8.17;;;;;;;4.31;100.00;99809.23;3635659;79;28348;-85
2022/11/16 18:23:10;;;;;;;14.90;8.10;;;;;;;4.27;100.00;99808.33;3626585;79;98855;-85
2022/11/16 18:28:10;;;;;;;14.53;8.23;;;;;;;4.23;100.00;99806.88;3620851;79;32423;-85
2022/11/16 18:33:11;;;;;;;16.33;7.10;;;;;;;4.22;100.00;99812.12;3632177;79;98693;-86
2022/11/16 18:38:12;;;;;;;14.93;6.80;;;;;;;4.21;100.00;99822.77;3625357;79;32443;-86
2022/11/16 18:43:13;;;;;;;11.87;6.83;;;;;;;4.19;100.00;99822.33;3625448;79;98700;-86
2022/11/16 18:48:14;;;;;;;11.63;6.77;;;;;;;4.13;100.00;99838.70;3629447;79;32433;-85
2022/11/16 18:53:14;;;;;;;13.43;7.20;;;;;;;4.11;100.00;99829.30;3616313;79;98799;-87
2022/11/16 18:58:15;;;;;;;12.13;7.17;;;;;;;4.05;100.00;99835.55;3619522;79;28236;-86
2022/11/16 19:03:16;;;;;;;12.17;6.10;;;;;;;3.99;100.00;99825.28;3632512;79;98642;-87
2022/11/16 19:08:17;;;;;;;11.77;6.00;;;;;;;3.93;100.00;99817.92;3623332;79;25839;-86
2022/11/16 19:13:18;;;;;;;10.03;4.83;;;;;;;3.83;99.55;99819.77;3620641;79;98643;-87
2022/11/16 19:18:19;;;;;;;11.20;5.50;;;;;;;3.75;99.44;99823.45;3630654;79;25833;-86
2022/11/16 19:23:20;;;;;;;11.10;5.83;;;;;;;3.73;99.39;99823.58;3621860;79;98563;-85
2022/11/16 19:28:20;;;;;;;12.23;6.00;;;;;;;3.68;99.31;99833.34;3634673;79;25915;-85
2022/11/16 19:33:21;;;;;;;14.93;7.87;;;;;;;3.64;99.56;99834.60;3626219;79;108944;-86
2022/11/16 19:38:22;;;;;;;16.97;9.63;;;;;;;3.59;99.83;99844.37;3632783;79;26436;-87
2022/11/16 19:43:23;;;;;;;14.90;7.10;;;;;;;3.48;99.69;99841.91;3629512;79;98652;-85
2022/11/16 19:48:23;;;;;;;11.87;6.80;;;;;;;3.45;99.39;99841.80;3628316;79;33768;-86
2022/11/16 19:53:26;;;;;;;10.40;6.00;;;;;;;3.41;99.41;99839.54;3624589;79;98504;-85
2022/11/16 19:58:27;;;;;;;16.57;5.80;;;;;;;3.39;98.65;99843.95;3633174;79;26017;-85
2022/11/16 20:03:30;;;;;;;12.73;6.50;;;;;;;3.33;98.39;99835.81;3627674;79;98578;-85
2022/11/16 20:08:31;;;;;;;13.05;6.75;;;;;;;3.27;98.40;99841.85;3625339;79;25804;-85
2022/11/16 20:13:31;;;;;;;11.47;6.20;;;;;;;3.25;98.28;99846.27;3625149;79;98533;-86
2022/11/16 20:18:32;;;;;;;13.57;6.20;;;;;;;3.21;98.18;99850.80;3645527;79;32588;-85
2022/11/16 20:23:34;;;;;;;11.20;5.65;;;;;;;3.20;98.47;99848.41;3658805;78;98695;-85
2022/11/16 20:28:40;;;;;;;11.50;5.87;;;;;;;3.20;98.71;99846.50;3655235;79;32602;-86
2022/11/16 20:33:41;;;;;;;11.23;4.93;;;;;;;3.18;98.07;99852.05;3653092;79;98463;-87
2022/11/16 20:38:42;;;;;;;13.20;5.63;;;;;;;3.13;98.23;99850.36;3659073;78;26691;-86
2022/11/16 20:43:45;;;;;;;9.37;5.33;;;;;;;3.15;98.05;99850.00;3646079;79;98390;-85
2022/11/16 20:48:46;;;;;;;11.27;6.33;;;;;;;3.11;97.96;99843.69;3653123;78;26230;-86
2022/11/16 20:53:48;;;;;;;14.10;6.70;;;;;;;3.13;98.50;99842.20;3643380;79;98444;-86
2022/11/16 20:58:49;;;;;;;12.13;6.10;;;;;;;3.13;97.98;99840.05;3661064;79;26381;-85
2022/11/16 21:03:50;;;;;;;11.47;6.20;;;;;;;3.13;98.31;99829.17;3649212;78;98716;-85
2022/11/16 21:08:51;;;;;;;13.93;8.10;;;;;;;3.13;98.17;99835.41;3660432;79;32609;-87
2022/11/16 21:19:11;;;;;;;11.90;6.47;;;;;;;3.12;98.14;99838.47;3649199;78;26193;-86
2022/11/16 21:24:12;;;;;;;13.40;7.03;;;;;;;3.10;98.14;99833.92;3630152;79;98265;-85
2022/11/16 21:29:13;;;;;;;13.90;7.90;;;;;;;3.12;98.44;99836.52;3633546;79;32600;-84
2022/11/16 21:34:14;;;;;;;11.43;6.37;;;;;;;3.15;98.53;99833.69;3621452;79;98486;-85
2022/11/16 21:39:14;;;;;;;13.47;6.93;;;;;;;3.15;98.25;99829.05;3634748;79;32729;-86
2022/11/16 21:44:15;;;;;;;11.88;6.35;;;;;;;3.14;98.43;99829.39;3621596;79;98533;-86
2022/11/16 21:49:16;;;;;;;16.63;7.83;;;;;;;3.15;98.70;99838.57;3629942;79;33257;-85
2022/11/16 21:54:17;;;;;;;18.03;9.43;;;;;;;3.16;98.78;99841.51;3630379;79;98595;-86
2022/11/16 21:59:17;;;;;;;13.37;7.50;;;;;;;3.16;98.71;99838.02;3628254;79;31699;-86
2022/11/16 22:09:37;;;;;;;14.43;8.08;;;;;;;3.20;98.88;99849.21;3625968;79;33140;-85
2022/11/16 22:14:38;;;;;;;15.47;7.57;;;;;;;3.21;98.76;99848.08;3609087;79;98501;-85
2022/11/16 22:19:39;;;;;;;18.27;8.80;;;;;;;3.22;99.01;99853.73;3653158;79;31647;-85
2022/11/16 22:24:39;;;;;;;19.57;10.47;;;;;;;3.22;98.89;99856.45;3657799;78;98652;-86
2022/11/16 22:29:40;;;;;;;15.27;8.00;;;;;;;3.23;98.98;99854.53;3654032;79;31601;-85
2022/11/16 22:34:41;;;;;;;20.23;9.33;;;;;;;3.25;98.97;99851.70;3650384;78;98432;-87
2022/11/16 22:39:42;;;;;;;17.67;9.17;;;;;;;3.28;99.16;99848.87;3638853;80;30408;-86
2022/11/16 22:44:43;;;;;;;13.83;7.77;;;;;;;3.31;98.95;99837.29;3649498;79;98497;-85
2022/11/16 22:49:44;;;;;;;15.70;8.30;;;;;;;3.31;98.90;99830.49;3653692;78;30910;-87
2022/11/16 22:54:45;;;;;;;52.33;21.50;;;;;;;3.31;99.11;99838.64;3644019;80;98434;-86
2022/11/16 22:59:46;;;;;;;23.07;10.53;;;;;;;3.29;98.99;99840.34;3662986;78;34863;-88
2022/11/16 23:04:47;;;;;;;15.80;9.00;;;;;;;3.31;99.32;99831.30;3657392;80;98573;-86
2022/11/16 23:09:48;;;;;;;20.73;10.23;;;;;;;3.35;99.49;99830.84;3660329;79;35165;-87
2022/11/16 23:30:47;;;;;;;15.18;8.85;;;;;;;3.44;99.41;99816.52;3658928;78;30415;-86
2022/11/16 23:35:48;;;;;;;41.60;19.13;;;;;;;3.44;99.34;99821.19;3655087;78;98688;-86
2022/11/16 23:40:49;;;;;;;17.25;9.15;;;;;;;3.43;99.45;99812.22;3657436;80;31340;-84
2022/11/16 23:45:50;;;;;;;18.87;9.17;;;;;;;3.45;99.71;99811.30;3646000;79;98522;-88
2022/11/16 23:50:51;;;;;;;16.07;8.20;;;;;;;3.44;99.51;99804.87;3655168;79;34842;-87
2022/11/16 23:55:52;;;;;;;15.10;8.50;;;;;;;3.44;99.39;99813.80;3649061;78;98530;-89
